Air Park, Nebraska
Current Conditions -  °F | °C
As of 7:54 PM on Saturday 22 Nov 2014 (Local Time) from KLNK Reporting Station
Overcast Overcast  
Wind Chill: 57°   Ceiling: 1500
Heat Index: 57°   Visibility: 9mi
Dew Point: 52°   Wind: 17mph
Humidity: 83%   Direction: 190°S
Pressure: 29.6"   Gusts: NA
Location:  40.8731°N, 96.8015°W
Report Text: KLNK 230154Z 19015KT 9SM OVC015 14/11 A2960 RMK AO2 SLP023 T01390111
Loading
Personal Weather Stations






























Interactive Weather Map New forecast layout! Learn more

10-Day Weather Forecast

Advertisements
Track Severe Weather on mobile